createdAt,value
2017-09-25T00:01:46.711Z,25.40
2017-09-25T00:04:14.533Z,27.30
2017-09-25T00:06:42.411Z,26.67
2017-09-25T00:09:10.247Z,25.80
2017-09-25T00:11:38.127Z,25.90
2017-09-25T00:14:05.956Z,25.87
2017-09-25T00:16:33.845Z,24.70
2017-09-25T00:19:01.656Z,25.40
2017-09-25T00:21:29.551Z,25.97
2017-09-25T00:23:57.272Z,26.30
2017-09-25T00:26:25.169Z,25.83
2017-09-25T00:28:52.972Z,25.80
2017-09-25T00:31:20.825Z,24.53
2017-09-25T00:33:48.658Z,25.50
2017-09-25T00:36:16.597Z,25.53
2017-09-25T00:38:44.445Z,24.27
2017-09-25T00:41:12.374Z,24.97
2017-09-25T00:43:40.199Z,24.13
2017-09-25T00:46:08.075Z,26.47
2017-09-25T00:48:35.949Z,25.87
2017-09-25T00:51:03.847Z,25.83
2017-09-25T00:56:33.817Z,25.43
2017-09-25T00:59:01.710Z,25.90
2017-09-25T01:01:41.428Z,24.27
2017-09-25T01:04:20.969Z,26.00
2017-09-25T01:06:48.831Z,25.67
2017-09-25T01:09:16.704Z,25.43
2017-09-25T01:11:44.621Z,28.03
2017-09-25T01:14:12.485Z,26.43
2017-09-25T01:16:40.349Z,26.07
2017-09-25T01:19:08.191Z,27.40
2017-09-25T01:21:36.070Z,27.63
2017-09-25T01:24:03.905Z,27.67
2017-09-25T01:26:31.772Z,27.30
2017-09-25T01:28:59.639Z,26.17
2017-09-25T01:31:27.464Z,28.30
2017-09-25T01:33:55.360Z,28.23
2017-09-25T01:36:23.170Z,28.17
2017-09-25T01:38:51.034Z,26.70
2017-09-25T01:41:18.949Z,26.33
2017-09-25T01:43:46.818Z,28.07
2017-09-25T01:46:14.647Z,26.80
2017-09-25T01:48:42.513Z,26.60
2017-09-25T01:51:10.370Z,27.47
2017-09-25T01:53:38.245Z,26.80
2017-09-25T01:56:06.095Z,27.87
2017-09-25T01:58:33.952Z,26.53
2017-09-25T02:01:02.531Z,26.63
2017-09-25T02:03:30.431Z,27.57
2017-09-25T02:05:58.303Z,26.77
2017-09-25T02:08:26.175Z,27.13
2017-09-25T02:10:54.035Z,27.30
2017-09-25T02:13:21.952Z,27.40
2017-09-25T02:15:49.767Z,27.60
2017-09-25T02:18:17.642Z,26.97
2017-09-25T02:20:45.468Z,27.40
2017-09-25T02:23:13.350Z,27.37
2017-09-25T02:25:41.179Z,28.00
2017-09-25T02:28:09.018Z,28.60
2017-09-25T02:30:36.756Z,28.20
2017-09-25T02:33:04.687Z,27.10
2017-09-25T02:35:32.558Z,27.20
2017-09-25T02:38:00.493Z,26.67
2017-09-25T02:40:28.243Z,25.83
2017-09-25T02:42:56.057Z,26.80
2017-09-25T02:45:23.877Z,25.47
2017-09-25T02:47:51.744Z,25.13
2017-09-25T02:50:19.556Z,26.07
2017-09-25T02:52:47.433Z,24.57
2017-09-25T02:55:15.254Z,25.27
2017-09-25T02:57:43.107Z,22.07
2017-09-25T03:00:10.953Z,24.07
2017-09-25T03:02:38.806Z,23.10
2017-09-25T03:05:06.643Z,27.37
2017-09-25T03:07:34.499Z,25.90
2017-09-25T03:10:02.333Z,25.30
2017-09-25T03:12:30.263Z,27.10
2017-09-25T03:14:58.104Z,27.47
2017-09-25T03:17:25.962Z,24.37
2017-09-25T03:19:53.844Z,17.60
2017-09-25T03:22:21.650Z,24.37
2017-09-25T03:24:49.533Z,31.30
2017-09-25T03:27:17.298Z,36.40
2017-09-25T03:29:45.180Z,34.60
2017-09-25T03:32:13.035Z,33.50
2017-09-25T03:34:40.897Z,30.60
2017-09-25T03:37:08.736Z,29.33
2017-09-25T03:39:36.597Z,24.27
2017-09-25T03:42:04.668Z,23.97
2017-09-25T03:44:32.543Z,23.60
2017-09-25T03:47:00.351Z,22.27
2017-09-25T03:49:28.211Z,22.20
2017-09-25T03:51:56.039Z,21.50
2017-09-25T03:54:23.906Z,21.90
2017-09-25T03:56:51.725Z,19.53
2017-09-25T03:59:19.600Z,20.40
2017-09-25T04:01:47.422Z,21.87
2017-09-25T04:04:15.279Z,21.47
2017-09-25T04:06:43.119Z,20.60
2017-09-25T04:09:11.009Z,21.27
2017-09-25T04:11:38.851Z,20.40
2017-09-25T04:14:06.741Z,22.93
2017-09-25T04:16:34.573Z,23.37
2017-09-25T04:19:02.451Z,18.63
2017-09-25T04:21:30.289Z,21.43
2017-09-25T04:23:58.086Z,22.17
2017-09-25T04:26:25.931Z,21.50
2017-09-25T04:28:53.814Z,20.50
2017-09-25T04:31:21.630Z,18.90
2017-09-25T04:33:49.499Z,19.17
2017-09-25T04:36:17.362Z,19.33
2017-09-25T04:38:45.256Z,17.10
2017-09-25T04:41:13.134Z,19.70
2017-09-25T04:43:41.039Z,20.90
2017-09-25T04:46:08.858Z,23.73
2017-09-25T04:48:36.756Z,21.93
2017-09-25T04:51:04.591Z,20.33
2017-09-25T04:53:32.519Z,19.20
2017-09-25T04:56:00.348Z,18.73
2017-09-25T04:58:28.244Z,19.00
2017-09-25T05:00:56.072Z,22.30
2017-09-25T05:03:23.921Z,26.50
2017-09-25T05:05:51.807Z,31.70
2017-09-25T05:08:19.615Z,19.03
2017-09-25T05:10:47.487Z,19.10
2017-09-25T05:13:15.295Z,20.50
2017-09-25T05:15:43.161Z,21.83
2017-09-25T05:18:11.016Z,22.27
2017-09-25T05:20:38.922Z,17.90
2017-09-25T05:23:06.749Z,18.00
2017-09-25T05:25:34.627Z,18.90
2017-09-25T05:28:02.471Z,18.10
2017-09-25T05:30:30.365Z,21.43
2017-09-25T05:32:58.194Z,21.03
2017-09-25T05:35:26.106Z,21.90
2017-09-25T05:37:53.927Z,21.17
2017-09-25T05:40:21.795Z,19.50
2017-09-25T05:42:49.650Z,19.87
2017-09-25T05:45:17.433Z,22.80
2017-09-25T05:47:45.253Z,24.53
2017-09-25T05:50:13.164Z,19.20
2017-09-25T05:52:41.016Z,25.30
2017-09-25T05:55:08.902Z,24.00
2017-09-25T05:57:36.735Z,19.07
2017-09-25T06:00:04.659Z,23.83
2017-09-25T06:02:32.513Z,21.77
2017-09-25T06:05:00.474Z,20.60
2017-09-25T06:07:28.306Z,26.90
2017-09-25T06:09:56.135Z,26.50
2017-09-25T06:12:23.848Z,26.20
2017-09-25T06:14:51.686Z,24.97
2017-09-25T06:17:19.441Z,24.53
2017-09-25T06:19:47.271Z,25.97
2017-09-25T06:22:15.025Z,24.10
2017-09-25T06:24:42.801Z,26.70
2017-09-25T06:27:10.562Z,26.33
2017-09-25T06:29:38.427Z,29.13
2017-09-25T06:32:06.166Z,28.43
2017-09-25T06:34:33.933Z,27.17
2017-09-25T06:37:01.687Z,25.90
2017-09-25T06:39:29.465Z,25.63
2017-09-25T06:41:57.218Z,24.17
2017-09-25T06:44:24.952Z,24.83
2017-09-25T06:46:52.750Z,24.90
2017-09-25T06:49:20.495Z,22.73
2017-09-25T06:51:48.276Z,22.97
2017-09-25T06:54:16.021Z,24.10
2017-09-25T06:56:43.817Z,23.10
2017-09-25T06:59:11.580Z,24.50
2017-09-25T07:01:39.364Z,23.07
2017-09-25T07:04:07.084Z,23.20
2017-09-25T07:06:34.861Z,22.40
2017-09-25T07:09:02.595Z,24.50
2017-09-25T07:11:30.363Z,23.43
2017-09-25T07:13:58.111Z,22.53
2017-09-25T07:16:25.926Z,22.00
2017-09-25T07:18:53.702Z,20.60
2017-09-25T07:21:21.508Z,21.60
2017-09-25T07:23:49.286Z,21.50
2017-09-25T07:26:17.130Z,19.90
2017-09-25T07:28:44.891Z,21.87
2017-09-25T07:31:12.698Z,21.13
2017-09-25T07:33:40.485Z,19.73
2017-09-25T07:36:08.267Z,20.70
2017-09-25T07:38:35.988Z,19.63
2017-09-25T07:41:03.784Z,20.37
2017-09-25T07:43:31.515Z,19.57
2017-09-25T07:45:59.315Z,19.93
2017-09-25T07:48:27.100Z,19.40
2017-09-25T07:50:54.919Z,18.00
2017-09-25T07:53:22.712Z,18.93
2017-09-25T07:55:50.483Z,19.53
2017-09-25T07:58:18.215Z,20.10
2017-09-25T08:00:46.035Z,20.23
2017-09-25T08:03:13.810Z,20.20
2017-09-25T08:05:41.622Z,20.47
2017-09-25T08:08:09.379Z,20.90
2017-09-25T08:10:37.176Z,20.87
2017-09-25T08:13:04.943Z,20.87
2017-09-25T08:15:32.724Z,21.40
2017-09-25T08:18:00.451Z,21.63
2017-09-25T08:23:19.938Z,21.20
2017-09-25T08:25:47.744Z,19.70
2017-09-25T08:28:15.500Z,20.73
2017-09-25T08:30:43.291Z,19.10
2017-09-25T08:33:11.036Z,19.10
2017-09-25T08:38:16.648Z,17.33
2017-09-25T08:40:44.427Z,18.60
2017-09-25T08:43:12.170Z,17.80
2017-09-25T08:45:39.973Z,18.33
2017-09-25T08:48:13.301Z,17.50
2017-09-25T08:50:41.098Z,17.50
2017-09-25T08:53:08.839Z,17.27
2017-09-25T08:55:36.686Z,15.37
2017-09-25T08:58:04.500Z,15.93
2017-09-25T09:00:32.256Z,16.27
2017-09-25T09:03:04.200Z,14.57
2017-09-25T09:05:32.204Z,15.47
2017-09-25T09:08:00.236Z,15.60
2017-09-25T09:10:28.005Z,14.80
2017-09-25T09:12:55.801Z,14.97
2017-09-25T09:15:23.656Z,14.07
2017-09-25T09:17:51.502Z,15.13
2017-09-25T09:20:19.347Z,14.30
2017-09-25T09:22:47.146Z,14.10
2017-09-25T09:25:14.893Z,14.23
2017-09-25T09:27:42.691Z,16.40
2017-09-25T09:30:10.533Z,14.50
2017-09-25T09:32:38.417Z,13.83
2017-09-25T09:35:06.189Z,14.73
2017-09-25T09:37:34.007Z,14.87
2017-09-25T09:40:01.733Z,14.20
2017-09-25T09:42:29.644Z,14.60
2017-09-25T09:44:57.406Z,14.00
2017-09-25T09:47:25.191Z,14.90
2017-09-25T09:49:52.939Z,14.20
2017-09-25T09:52:20.766Z,14.20
2017-09-25T09:54:48.489Z,14.90
2017-09-25T09:57:16.848Z,14.70
2017-09-25T09:59:47.662Z,14.20
2017-09-25T10:02:15.506Z,13.87
2017-09-25T10:04:43.903Z,14.00
2017-09-25T10:07:11.805Z,14.37
2017-09-25T10:09:42.337Z,13.83
2017-09-25T10:12:10.542Z,13.63
2017-09-25T10:14:39.218Z,13.23
2017-09-25T10:17:07.130Z,14.07
2017-09-25T10:19:36.132Z,13.80
2017-09-25T10:22:05.810Z,13.07
2017-09-25T10:24:35.401Z,12.83
2017-09-25T10:27:04.721Z,12.40
2017-09-25T10:29:35.211Z,12.80
2017-09-25T10:32:05.901Z,12.93
2017-09-25T10:34:35.336Z,18.17
2017-09-25T10:37:04.234Z,13.77
2017-09-25T10:39:33.258Z,11.93
2017-09-25T10:42:02.220Z,11.53
2017-09-25T10:44:31.448Z,11.70
2017-09-25T10:47:00.789Z,12.33
2017-09-25T10:49:29.483Z,12.33
2017-09-25T10:51:59.838Z,11.90
2017-09-25T10:54:29.441Z,11.70
2017-09-25T10:57:01.543Z,11.37
2017-09-25T10:59:30.646Z,12.07
2017-09-25T11:02:00.158Z,11.40
2017-09-25T11:04:30.868Z,12.23
2017-09-25T11:06:58.773Z,12.20
2017-09-25T11:09:29.458Z,11.77
2017-09-25T11:11:59.462Z,12.57
2017-09-25T11:14:30.890Z,12.50
2017-09-25T11:17:02.882Z,12.93
2017-09-25T11:19:32.208Z,19.00
2017-09-25T11:22:00.960Z,12.03
2017-09-25T11:24:30.787Z,12.30
2017-09-25T11:27:01.922Z,11.53
2017-09-25T11:29:30.375Z,13.53
2017-09-25T11:32:00.467Z,12.83
2017-09-25T11:34:30.431Z,12.73
2017-09-25T11:36:58.931Z,13.00
2017-09-25T11:39:33.363Z,13.23
2017-09-25T11:42:01.659Z,12.90
2017-09-25T11:44:32.503Z,12.77
2017-09-25T11:47:02.540Z,13.10
2017-09-25T11:49:31.450Z,12.70
2017-09-25T11:52:00.366Z,12.37
2017-09-25T11:54:29.902Z,12.57
2017-09-25T11:56:59.009Z,13.03
2017-09-25T11:59:26.899Z,11.93
2017-09-25T12:01:56.406Z,13.07
2017-09-25T12:04:26.413Z,13.50
2017-09-25T12:06:55.584Z,12.23
2017-09-25T12:09:25.657Z,12.80
2017-09-25T12:11:54.513Z,12.63
2017-09-25T12:14:23.313Z,13.33
2017-09-25T12:16:52.434Z,12.67
2017-09-25T12:19:21.856Z,11.90
2017-09-25T12:21:54.623Z,12.93
2017-09-25T12:24:23.564Z,14.70
2017-09-25T12:26:53.101Z,15.23
2017-09-25T12:29:23.791Z,13.40
2017-09-25T12:31:54.123Z,15.87
2017-09-25T12:34:22.049Z,15.30
2017-09-25T12:36:52.273Z,14.10
2017-09-25T12:39:21.986Z,15.53
2017-09-25T12:41:51.466Z,13.73
2017-09-25T12:44:20.172Z,15.10
2017-09-25T12:46:49.678Z,14.53
2017-09-25T12:49:21.242Z,13.60
2017-09-25T12:51:55.620Z,15.73
2017-09-25T12:54:40.356Z,14.80
2017-09-25T12:59:51.029Z,12.97
2017-09-25T13:02:20.743Z,13.10
2017-09-25T13:04:48.938Z,12.07
2017-09-25T13:07:17.460Z,11.77
2017-09-25T13:09:45.668Z,10.70
2017-09-25T13:12:16.104Z,13.03
2017-09-25T13:14:47.685Z,13.83
2017-09-25T13:17:15.568Z,12.77
2017-09-25T13:19:48.996Z,13.47
2017-09-25T13:22:17.675Z,12.30
2017-09-25T13:24:46.689Z,12.00
2017-09-25T13:27:15.319Z,12.57
2017-09-25T13:29:48.484Z,10.57
2017-09-25T13:32:21.936Z,11.60
2017-09-25T13:34:50.324Z,11.93
2017-09-25T13:37:20.063Z,12.07
2017-09-25T13:39:48.794Z,11.63
2017-09-25T13:42:19.623Z,11.93
2017-09-25T13:47:26.238Z,11.97
2017-09-25T13:49:55.083Z,12.13
2017-09-25T13:52:23.876Z,12.33
2017-09-25T13:54:55.388Z,11.63
2017-09-25T13:57:24.340Z,12.00
2017-09-25T14:02:27.145Z,12.53
2017-09-25T14:04:56.879Z,12.03
2017-09-25T14:07:26.788Z,12.27
2017-09-25T14:09:55.318Z,12.20
2017-09-25T14:12:24.613Z,12.17
2017-09-25T14:14:54.470Z,12.30
2017-09-25T14:20:01.894Z,13.47
2017-09-25T14:22:32.247Z,12.87
2017-09-25T14:30:54.560Z,14.43
2017-09-25T14:39:12.992Z,14.20
2017-09-25T14:47:40.830Z,13.70
2017-09-25T14:50:25.701Z,13.47
2017-09-25T15:01:51.765Z,14.23
2017-09-25T15:04:34.462Z,15.20
2017-09-25T15:07:22.635Z,14.77
2017-09-25T15:15:33.095Z,14.33
2017-09-25T15:37:25.937Z,15.40
2017-09-25T15:42:55.213Z,14.30
2017-09-25T15:56:25.506Z,13.60
2017-09-25T15:58:56.020Z,13.07
2017-09-25T16:01:24.247Z,13.13
2017-09-25T16:03:54.627Z,13.13
2017-09-25T16:06:27.003Z,13.80
2017-09-25T16:08:56.574Z,12.50
2017-09-25T16:11:25.639Z,13.30
2017-09-25T16:13:53.832Z,12.73
2017-09-25T16:16:23.704Z,13.73
2017-09-25T16:18:52.158Z,12.90
2017-09-25T16:21:23.552Z,12.50
2017-09-25T16:23:58.412Z,13.27
2017-09-25T16:26:27.154Z,11.23
2017-09-25T16:28:56.114Z,13.20
2017-09-25T16:31:26.626Z,12.77
2017-09-25T16:34:04.219Z,12.90
2017-09-25T16:36:40.573Z,13.17
2017-09-25T16:39:23.610Z,13.20
2017-09-25T16:41:53.770Z,12.60
2017-09-25T16:44:31.221Z,13.37
2017-09-25T16:49:43.262Z,12.90
2017-09-25T16:52:17.324Z,12.90
2017-09-25T17:00:22.434Z,9.80
2017-09-25T17:02:50.903Z,9.43
2017-09-25T17:05:19.779Z,8.00
2017-09-25T17:07:49.267Z,6.50
2017-09-25T17:10:18.234Z,7.83
2017-09-25T17:13:00.657Z,5.60
2017-09-25T17:15:29.507Z,6.43
2017-09-25T17:18:01.237Z,6.60
2017-09-25T17:20:29.412Z,6.70
2017-09-25T17:22:59.544Z,7.00
2017-09-25T17:25:30.236Z,6.73
2017-09-25T17:28:00.738Z,7.47
2017-09-25T17:30:28.763Z,7.00
2017-09-25T17:33:00.061Z,8.07
2017-09-25T17:35:30.503Z,7.40
2017-09-25T17:38:00.802Z,8.40
2017-09-25T17:40:30.621Z,8.30
2017-09-25T17:43:05.316Z,8.80
2017-09-25T17:45:33.562Z,9.57
2017-09-25T17:48:03.618Z,10.13
2017-09-25T17:50:35.745Z,9.80
2017-09-25T17:53:03.929Z,9.90
2017-09-25T17:55:31.696Z,9.90
2017-09-25T17:57:59.518Z,10.00
2017-09-25T18:00:27.318Z,9.77
2017-09-25T18:02:58.350Z,10.30
2017-09-25T18:05:26.196Z,10.50
2017-09-25T18:07:54.051Z,9.60
2017-09-25T18:10:21.834Z,9.17
2017-09-25T18:12:49.644Z,9.30
2017-09-25T18:15:17.565Z,9.60
2017-09-25T18:17:47.776Z,9.70
2017-09-25T18:20:15.663Z,9.80
2017-09-25T18:22:43.459Z,9.63
2017-09-25T18:25:11.208Z,9.73
2017-09-25T18:27:39.031Z,9.80
2017-09-25T18:30:06.837Z,9.50
2017-09-25T18:32:34.608Z,9.13
2017-09-25T18:35:02.440Z,9.63
2017-09-25T18:37:30.331Z,10.57
2017-09-25T18:39:58.205Z,9.67
2017-09-25T18:42:26.126Z,9.30
2017-09-25T18:44:53.962Z,9.80
2017-09-25T18:47:21.841Z,9.37
2017-09-25T18:49:49.671Z,9.50
2017-09-25T18:52:17.563Z,9.37
2017-09-25T18:54:45.425Z,9.90
2017-09-25T18:57:13.364Z,10.43
2017-09-25T18:59:41.208Z,9.20
2017-09-25T19:02:09.043Z,9.90
2017-09-25T19:04:36.963Z,10.10
2017-09-25T19:07:04.724Z,10.60
2017-09-25T19:09:32.651Z,10.50
2017-09-25T19:12:00.478Z,10.40
2017-09-25T19:14:28.335Z,10.40
2017-09-25T19:16:56.151Z,9.87
2017-09-25T19:19:24.074Z,9.80
2017-09-25T19:21:51.913Z,10.10
2017-09-25T19:24:20.062Z,10.00
2017-09-25T19:26:47.898Z,9.70
2017-09-25T19:29:15.774Z,9.13
2017-09-25T19:31:43.645Z,10.33
2017-09-25T19:34:11.544Z,10.40
2017-09-25T19:36:39.423Z,10.40
2017-09-25T19:39:07.250Z,10.63
2017-09-25T19:41:35.146Z,10.10
2017-09-25T19:44:03.065Z,10.70
2017-09-25T19:46:30.989Z,10.00
2017-09-25T19:49:10.713Z,10.80
2017-09-25T19:51:38.623Z,10.20
2017-09-25T19:54:08.510Z,10.43
2017-09-25T19:59:38.732Z,10.13
2017-09-25T20:02:06.640Z,10.83
2017-09-25T20:04:34.529Z,10.07
2017-09-25T20:07:12.087Z,10.40
2017-09-25T20:09:40.011Z,10.47
2017-09-25T20:12:07.908Z,10.30
2017-09-25T20:14:38.817Z,11.20
2017-09-25T20:17:17.292Z,10.50
2017-09-25T20:19:45.311Z,11.03
2017-09-25T20:22:13.169Z,11.57
2017-09-25T20:24:41.051Z,11.17
2017-09-25T20:27:08.917Z,11.43
2017-09-25T20:29:36.823Z,11.10
2017-09-25T20:32:04.653Z,10.80
2017-09-25T20:34:32.552Z,11.43
2017-09-25T20:37:00.515Z,11.30
2017-09-25T20:39:28.504Z,11.50
2017-09-25T20:41:58.759Z,11.17
2017-09-25T20:44:27.980Z,11.93
2017-09-25T20:46:55.826Z,11.23
2017-09-25T20:49:23.718Z,11.30
2017-09-25T20:51:51.569Z,10.50
2017-09-25T20:54:19.475Z,11.30
2017-09-25T20:56:47.352Z,11.23
2017-09-25T20:59:15.243Z,12.53
2017-09-25T21:01:43.073Z,12.00
2017-09-25T21:04:10.856Z,10.90
2017-09-25T21:06:38.695Z,11.83
2017-09-25T21:09:06.581Z,11.97
2017-09-25T21:11:34.431Z,12.50
2017-09-25T21:14:02.393Z,11.23
2017-09-25T21:16:30.250Z,12.13
2017-09-25T21:18:58.139Z,11.87
2017-09-25T21:21:25.933Z,12.70
2017-09-25T21:23:53.872Z,11.80
2017-09-25T21:26:22.595Z,12.17
2017-09-25T21:28:50.490Z,12.67
2017-09-25T21:31:18.349Z,13.37
2017-09-25T21:33:46.224Z,12.77
2017-09-25T21:36:14.071Z,11.80
2017-09-25T21:38:41.954Z,13.40
2017-09-25T21:41:09.890Z,12.23
2017-09-25T21:43:37.748Z,12.60
2017-09-25T21:46:05.624Z,13.10
2017-09-25T21:48:33.445Z,11.80
2017-09-25T21:51:01.328Z,11.80
2017-09-25T21:53:29.135Z,12.03
2017-09-25T21:55:57.038Z,11.67
2017-09-25T21:58:24.771Z,11.80
2017-09-25T22:00:52.662Z,12.27
2017-09-25T22:03:20.523Z,12.50
2017-09-25T22:05:48.411Z,13.30
2017-09-25T22:08:16.234Z,13.30
2017-09-25T22:10:44.093Z,12.30
2017-09-25T22:13:11.924Z,12.77
2017-09-25T22:15:39.794Z,13.40
2017-09-25T22:18:07.540Z,13.67
2017-09-25T22:20:35.425Z,13.80
2017-09-25T22:23:03.251Z,13.10
2017-09-25T22:25:31.125Z,13.13
2017-09-25T22:27:58.945Z,13.30
2017-09-25T22:30:26.843Z,13.40
2017-09-25T22:32:54.790Z,12.83
2017-09-25T22:35:22.701Z,13.20
2017-09-25T22:37:50.696Z,13.40
2017-09-25T22:40:18.638Z,13.20
2017-09-25T22:42:46.591Z,13.00
2017-09-25T22:45:14.529Z,13.90
2017-09-25T22:47:42.366Z,12.47
2017-09-25T22:50:10.272Z,11.77
2017-09-25T22:52:38.181Z,13.33
2017-09-25T22:55:06.102Z,13.20
2017-09-25T22:57:33.979Z,13.00
2017-09-25T23:00:01.918Z,13.73
2017-09-25T23:02:29.810Z,13.37
2017-09-25T23:08:05.846Z,13.17
2017-09-25T23:10:33.762Z,12.93
2017-09-25T23:13:01.654Z,12.70
2017-09-25T23:15:29.522Z,13.10
2017-09-25T23:17:57.413Z,12.70
2017-09-25T23:20:25.265Z,13.20
2017-09-25T23:22:53.107Z,13.00
2017-09-25T23:25:21.054Z,13.40
2017-09-25T23:27:48.927Z,13.73
2017-09-25T23:30:28.453Z,13.13
2017-09-25T23:32:56.322Z,13.63
2017-09-25T23:35:24.206Z,13.67
2017-09-25T23:37:52.019Z,12.47
2017-09-25T23:40:19.874Z,13.57
2017-09-25T23:42:47.755Z,13.77
2017-09-25T23:45:15.613Z,14.17
2017-09-25T23:47:43.435Z,14.13
2017-09-25T23:50:11.355Z,13.97
2017-09-25T23:52:39.181Z,13.27
2017-09-25T23:55:07.077Z,13.37
2017-09-25T23:57:34.898Z,13.50
